Time;durP1;ratioP1;P1;durP2;ratioP2;P2;SDS_P1;SDS_P2;PMS_P1;PMS_P2;Temp;Humidity;BMP_temperature;BMP_pressure;BME280_temperature;BME280_humidity;BME280_pressure;Samples;Min_cycle;Max_cycle;Signal;HPM_P1;HPM_P2
2022/10/22 00:01:53;;;;;;;;;;;22.50;99.90;;;;;;5094777;28;19908;-69
2022/10/22 00:04:19;;;;;;;;;;;22.60;99.90;;;;;;5094503;28;19912;-70
2022/10/22 00:06:46;;;;;;;;;;;22.60;99.90;;;;;;5094678;28;19937;-72
2022/10/22 00:09:13;;;;;;;;;;;22.70;99.90;;;;;;5094356;28;19959;-70
2022/10/22 00:11:40;;;;;;;;;;;22.90;99.90;;;;;;5095439;28;19912;-70
2022/10/22 00:14:07;;;;;;;;;;;23.00;99.90;;;;;;5094324;28;19912;-70
2022/10/22 00:16:34;;;;;;;;;;;23.00;99.90;;;;;;5094452;28;19904;-69
2022/10/22 00:19:00;;;;;;;;;;;23.10;99.90;;;;;;5093729;28;19912;-70
2022/10/22 00:21:28;;;;;;;;;;;23.20;99.90;;;;;;5094085;28;19983;-70
2022/10/22 00:23:55;;;;;;;;;;;23.20;99.90;;;;;;5093772;28;19916;-70
2022/10/22 00:26:22;;;;;;;;;;;23.50;99.90;;;;;;5094330;28;19916;-71
2022/10/22 00:28:48;;;;;;;;;;;23.60;99.90;;;;;;5093848;28;20415;-73
2022/10/22 00:31:15;;;;;;;;;;;23.90;99.90;;;;;;5094137;28;20012;-72
2022/10/22 00:33:42;;;;;;;;;;;24.10;99.90;;;;;;5093472;28;20275;-73
2022/10/22 00:36:08;;;;;;;;;;;24.30;99.90;;;;;;5093954;28;19919;-71
2022/10/22 00:38:35;;;;;;;;;;;24.30;99.90;;;;;;5094131;28;19919;-71
2022/10/22 00:41:01;;;;;;;;;;;24.30;99.90;;;;;;5093661;28;19912;-70
2022/10/22 00:43:28;;;;;;;;;;;24.30;99.90;;;;;;5086979;28;20015;-72
2022/10/22 00:45:55;;;;;;;;;;;24.40;99.90;;;;;;5073400;28;20284;-70
2022/10/22 00:48:23;;;;;;;;;;;24.50;99.90;;;;;;5055652;28;19914;-71
2022/10/22 00:50:54;;;;;;;;;;;24.70;99.90;;;;;;5089715;28;20410;-71
2022/10/22 00:53:23;;;;;;;;;;;24.90;99.90;;;;;;5092940;28;19954;-71
2022/10/22 00:55:52;;;;;;;;;;;25.00;99.90;;;;;;5093214;28;19918;-71
2022/10/22 00:58:22;;;;;;;;;;;25.30;99.90;;;;;;5093733;28;19922;-70
2022/10/22 01:00:49;;;;;;;;;;;25.50;99.90;;;;;;5092951;28;19908;-73
2022/10/22 01:03:15;;;;;;;;;;;25.60;99.90;;;;;;5092910;28;19960;-71
2022/10/22 01:06:02;;;;;;;;;;;25.60;99.90;;;;;;5093220;28;19916;-72
2022/10/22 01:08:46;;;;;;;;;;;25.70;99.90;;;;;;5093360;28;20261;-71
2022/10/22 01:11:28;;;;;;;;;;;25.80;99.90;;;;;;5072970;28;19993;-70
2022/10/22 01:13:55;;;;;;;;;;;25.90;99.90;;;;;;5078267;28;20361;-72
2022/10/22 01:16:29;;;;;;;;;;;26.10;99.90;;;;;;5072604;28;19909;-69
2022/10/22 01:18:56;;;;;;;;;;;26.20;99.90;;;;;;5073515;28;19919;-70
2022/10/22 01:21:34;;;;;;;;;;;26.40;99.90;;;;;;5092849;28;19961;-70
2022/10/22 01:24:12;;;;;;;;;;;26.70;99.90;;;;;;5093173;28;19912;-70
2022/10/22 01:26:57;;;;;;;;;;;26.70;99.90;;;;;;5092942;28;19966;-71
2022/10/22 01:29:24;;;;;;;;;;;26.70;99.90;;;;;;5093076;28;19941;-72
2022/10/22 01:32:01;;;;;;;;;;;26.90;99.90;;;;;;5093249;28;20273;-70
2022/10/22 01:34:29;;;;;;;;;;;27.10;99.90;;;;;;5092852;28;20387;-71
2022/10/22 01:36:57;;;;;;;;;;;27.20;99.90;;;;;;5092894;28;20341;-72
2022/10/22 01:39:24;;;;;;;;;;;27.50;99.90;;;;;;5092501;28;20339;-71
2022/10/22 01:41:53;;;;;;;;;;;27.60;99.90;;;;;;5092734;28;19908;-71
2022/10/22 01:44:26;;;;;;;;;;;27.70;99.50;;;;;;5092534;28;19912;-69
2022/10/22 01:47:02;;;;;;;;;;;27.50;99.90;;;;;;5092563;28;19944;-71
2022/10/22 01:49:38;;;;;;;;;;;27.40;99.90;;;;;;5092705;28;19999;-73
2022/10/22 01:52:13;;;;;;;;;;;27.50;99.70;;;;;;5092898;28;19923;-70
2022/10/22 01:54:53;;;;;;;;;;;27.40;99.90;;;;;;5092458;28;19957;-72
2022/10/22 01:57:32;;;;;;;;;;;27.30;99.80;;;;;;5092893;28;19931;-71
2022/10/22 02:00:05;;;;;;;;;;;27.00;99.90;;;;;;5091994;28;20365;-73
2022/10/22 02:02:52;;;;;;;;;;;26.80;99.90;;;;;;5092258;28;19908;-72
2022/10/22 02:05:28;;;;;;;;;;;26.50;99.90;;;;;;5092068;28;20307;-72
2022/10/22 02:07:59;;;;;;;;;;;26.30;99.90;;;;;;5091662;28;19951;-70
2022/10/22 02:10:26;;;;;;;;;;;26.00;99.90;;;;;;5092230;28;19949;-72
2022/10/22 02:12:54;;;;;;;;;;;25.80;99.90;;;;;;5092375;28;19916;-72
2022/10/22 02:15:22;;;;;;;;;;;25.80;99.90;;;;;;5092220;28;19931;-72
2022/10/22 02:17:50;;;;;;;;;;;25.90;99.90;;;;;;5092266;28;19908;-73
2022/10/22 02:20:22;;;;;;;;;;;26.10;99.90;;;;;;5092062;28;20431;-72
2022/10/22 02:22:49;;;;;;;;;;;26.20;99.90;;;;;;5092006;28;19915;-72
2022/10/22 02:25:16;;;;;;;;;;;26.10;99.90;;;;;;5091868;28;19916;-72
2022/10/22 02:28:11;;;;;;;;;;;25.90;99.90;;;;;;5092143;28;19961;-71
2022/10/22 02:30:40;;;;;;;;;;;25.70;99.90;;;;;;5082454;28;19916;-70
2022/10/22 02:33:06;;;;;;;;;;;25.70;99.90;;;;;;5091975;28;19916;-72
2022/10/22 02:35:33;;;;;;;;;;;25.60;99.90;;;;;;5091665;28;19947;-71
2022/10/22 02:38:00;;;;;;;;;;;25.20;99.90;;;;;;5091958;28;19915;-71
2022/10/22 02:40:27;;;;;;;;;;;25.00;99.90;;;;;;5091853;28;20022;-71
2022/10/22 02:42:54;;;;;;;;;;;25.10;99.90;;;;;;5092120;28;19908;-72
2022/10/22 02:45:21;;;;;;;;;;;25.10;99.90;;;;;;5092130;28;19967;-71
2022/10/22 02:47:48;;;;;;;;;;;25.20;99.90;;;;;;5092083;28;19999;-71
2022/10/22 02:50:15;;;;;;;;;;;25.60;99.90;;;;;;5091697;28;19973;-71
2022/10/22 02:52:41;;;;;;;;;;;25.70;99.90;;;;;;5091976;28;19961;-72
2022/10/22 02:55:08;;;;;;;;;;;26.00;99.90;;;;;;5091677;28;19914;-70
2022/10/22 02:57:35;;;;;;;;;;;26.10;99.90;;;;;;5091951;28;19958;-71
2022/10/22 03:00:01;;;;;;;;;;;26.10;99.90;;;;;;5091686;28;20328;-72
2022/10/22 03:02:28;;;;;;;;;;;26.00;99.90;;;;;;5091515;28;19911;-71
2022/10/22 03:04:54;;;;;;;;;;;26.20;99.90;;;;;;5073137;28;19916;-71
2022/10/22 03:07:21;;;;;;;;;;;26.70;99.90;;;;;;5072172;28;19909;-69
2022/10/22 03:09:48;;;;;;;;;;;27.00;99.90;;;;;;5079707;28;19912;-71
2022/10/22 03:12:14;;;;;;;;;;;27.40;99.90;;;;;;5092031;28;20299;-69
2022/10/22 03:14:41;;;;;;;;;;;27.00;99.90;;;;;;5056231;28;20373;-72
2022/10/22 03:17:07;;;;;;;;;;;27.00;99.90;;;;;;5071484;28;19909;-69
2022/10/22 03:19:34;;;;;;;;;;;26.50;99.90;;;;;;5080946;28;20007;-70
2022/10/22 03:22:24;;;;;;;;;;;26.20;99.90;;;;;;5095232;28;19915;-70
2022/10/22 03:24:52;;;;;;;;;;;25.80;99.90;;;;;;5081660;28;19923;-71
2022/10/22 03:27:20;;;;;;;;;;;25.50;99.90;;;;;;5095084;28;19909;-71
2022/10/22 03:29:48;;;;;;;;;;;25.40;99.90;;;;;;5094751;28;19912;-72
2022/10/22 03:32:15;;;;;;;;;;;25.20;99.90;;;;;;5095274;28;19935;-70
2022/10/22 03:34:41;;;;;;;;;;;25.10;99.90;;;;;;5076793;28;20253;-71
2022/10/22 03:37:08;;;;;;;;;;;24.80;99.90;;;;;;5094793;28;20261;-71
2022/10/22 03:39:35;;;;;;;;;;;24.70;99.90;;;;;;5095171;28;19912;-72
2022/10/22 03:42:02;;;;;;;;;;;24.50;99.90;;;;;;5095289;28;19909;-70
2022/10/22 03:44:29;;;;;;;;;;;24.40;99.90;;;;;;5062761;22;20013;-65
2022/10/22 03:46:56;;;;;;;;;;;24.20;99.90;;;;;;4991871;28;19921;-66
2022/10/22 03:49:23;;;;;;;;;;;24.00;99.90;;;;;;4987534;28;19913;-65
2022/10/22 03:51:49;;;;;;;;;;;23.90;99.90;;;;;;4972791;28;19910;-65
2022/10/22 03:54:16;;;;;;;;;;;23.90;99.90;;;;;;4985058;28;19967;-65
2022/10/22 03:56:43;;;;;;;;;;;23.90;99.90;;;;;;4992009;28;19917;-66
2022/10/22 03:59:11;;;;;;;;;;;23.90;99.90;;;;;;4989147;28;19914;-66
2022/10/22 04:01:38;;;;;;;;;;;23.80;99.90;;;;;;4972516;28;19945;-65
2022/10/22 04:04:05;;;;;;;;;;;23.60;99.90;;;;;;4983495;28;19924;-64
2022/10/22 04:06:32;;;;;;;;;;;23.40;99.90;;;;;;4991536;28;19909;-66
2022/10/22 04:08:59;;;;;;;;;;;23.30;99.90;;;;;;4990260;28;20305;-66
2022/10/22 04:11:26;;;;;;;;;;;23.30;99.90;;;;;;4972728;28;19910;-66
2022/10/22 04:13:53;;;;;;;;;;;23.30;99.90;;;;;;4982065;28;19910;-66
2022/10/22 04:16:21;;;;;;;;;;;23.30;99.90;;;;;;4991896;28;20002;-66
2022/10/22 04:18:48;;;;;;;;;;;23.30;99.90;;;;;;4991933;28;19949;-65
2022/10/22 04:21:15;;;;;;;;;;;23.10;99.90;;;;;;4972506;28;19910;-66
2022/10/22 04:23:45;;;;;;;;;;;23.10;99.90;;;;;;4979953;28;20012;-66
2022/10/22 04:26:12;;;;;;;;;;;23.00;99.90;;;;;;4991564;28;20247;-66
2022/10/22 04:28:39;;;;;;;;;;;23.10;99.90;;;;;;4991903;28;20029;-66
2022/10/22 04:31:12;;;;;;;;;;;23.10;99.90;;;;;;4972414;28;20389;-66
2022/10/22 04:33:39;;;;;;;;;;;23.00;99.90;;;;;;4979535;28;19910;-66
2022/10/22 04:36:07;;;;;;;;;;;23.10;99.90;;;;;;4991761;28;19910;-66
2022/10/22 04:38:33;;;;;;;;;;;23.10;99.90;;;;;;4991576;28;20019;-65
2022/10/22 04:41:16;;;;;;;;;;;23.40;99.90;;;;;;4973744;28;20321;-67
2022/10/22 04:43:43;;;;;;;;;;;23.60;99.90;;;;;;4979480;28;20370;-65
2022/10/22 04:46:11;;;;;;;;;;;23.60;99.90;;;;;;4991333;28;19910;-66
2022/10/22 04:48:39;;;;;;;;;;;23.80;99.90;;;;;;4991283;28;19910;-66
2022/10/22 04:51:06;;;;;;;;;;;24.10;99.90;;;;;;4972371;28;19910;-67
2022/10/22 04:53:34;;;;;;;;;;;24.10;99.90;;;;;;4978455;28;20273;-66
2022/10/22 04:56:11;;;;;;;;;;;24.40;99.90;;;;;;4991665;28;19955;-67
2022/10/22 04:58:37;;;;;;;;;;;24.50;99.90;;;;;;4991412;28;19991;-66
2022/10/22 05:01:15;;;;;;;;;;;24.50;99.90;;;;;;4972631;28;20263;-67
2022/10/22 05:03:41;;;;;;;;;;;24.30;99.90;;;;;;4979117;28;19920;-66
2022/10/22 05:06:08;;;;;;;;;;;24.30;99.90;;;;;;4991296;28;19914;-67
2022/10/22 05:08:35;;;;;;;;;;;24.30;99.90;;;;;;4990940;28;19910;-67
2022/10/22 05:11:09;;;;;;;;;;;24.30;99.90;;;;;;4972853;28;20380;-67
2022/10/22 05:13:36;;;;;;;;;;;24.30;99.90;;;;;;4978751;28;19910;-67
2022/10/22 05:16:02;;;;;;;;;;;24.60;99.90;;;;;;4991008;28;19917;-67
2022/10/22 05:18:29;;;;;;;;;;;24.60;99.90;;;;;;4991230;28;19914;-67
2022/10/22 05:20:55;;;;;;;;;;;25.10;99.90;;;;;;4973327;28;19914;-66
2022/10/22 05:23:22;;;;;;;;;;;25.30;99.90;;;;;;4976453;28;19910;-67
2022/10/22 05:25:49;;;;;;;;;;;25.50;99.90;;;;;;4990555;28;19929;-66
2022/10/22 05:28:15;;;;;;;;;;;25.60;99.90;;;;;;4990711;28;19910;-66
2022/10/22 05:30:42;;;;;;;;;;;26.10;99.90;;;;;;4989326;28;19910;-67
2022/10/22 05:33:08;;;;;;;;;;;26.50;99.90;;;;;;4990534;28;19910;-64
2022/10/22 05:35:35;;;;;;;;;;;26.90;99.90;;;;;;4989564;28;19914;-65
2022/10/22 05:38:02;;;;;;;;;;;27.00;99.90;;;;;;4991018;28;20255;-67
2022/10/22 05:40:28;;;;;;;;;;;27.30;99.90;;;;;;4977464;28;19914;-66
2022/10/22 05:42:55;;;;;;;;;;;27.10;99.90;;;;;;4955059;28;19910;-66
2022/10/22 05:45:21;;;;;;;;;;;27.00;99.70;;;;;;4989869;28;19930;-66
2022/10/22 05:47:48;;;;;;;;;;;26.40;99.90;;;;;;5053446;28;19921;-66
2022/10/22 05:50:15;;;;;;;;;;;26.00;99.90;;;;;;4978766;28;19917;-66
2022/10/22 05:52:41;;;;;;;;;;;25.40;99.90;;;;;;4970943;28;19910;-67
2022/10/22 05:55:08;;;;;;;;;;;25.10;99.90;;;;;;4990182;28;19917;-66
2022/10/22 05:57:34;;;;;;;;;;;24.90;99.90;;;;;;4990297;28;19945;-66
2022/10/22 06:00:01;;;;;;;;;;;24.60;99.90;;;;;;4980303;28;19920;-66
2022/10/22 06:02:28;;;;;;;;;;;24.40;99.90;;;;;;4980904;28;20008;-65
2022/10/22 06:04:54;;;;;;;;;;;24.10;99.90;;;;;;4989133;28;20374;-66
2022/10/22 06:07:21;;;;;;;;;;;23.90;99.90;;;;;;4989463;28;20362;-66
2022/10/22 06:09:49;;;;;;;;;;;23.70;99.90;;;;;;4990153;28;19961;-66
2022/10/22 06:12:15;;;;;;;;;;;23.50;99.90;;;;;;4985023;28;19963;-66
2022/10/22 06:14:42;;;;;;;;;;;23.50;99.90;;;;;;4988095;28;19910;-66
2022/10/22 06:17:09;;;;;;;;;;;23.50;99.90;;;;;;4989952;28;19916;-67
2022/10/22 06:19:35;;;;;;;;;;;23.50;99.90;;;;;;4989623;28;19917;-66
2022/10/22 06:22:03;;;;;;;;;;;23.50;99.90;;;;;;4981806;28;20420;-66
2022/10/22 06:24:30;;;;;;;;;;;23.50;99.90;;;;;;4984598;28;20382;-66
2022/10/22 06:26:57;;;;;;;;;;;23.60;99.90;;;;;;4990207;28;19914;-66
2022/10/22 06:29:23;;;;;;;;;;;23.60;99.90;;;;;;4990071;28;19916;-66
2022/10/22 06:31:50;;;;;;;;;;;23.50;99.90;;;;;;4983859;28;19910;-66
2022/10/22 06:34:17;;;;;;;;;;;23.50;99.90;;;;;;4982425;28;19917;-66
2022/10/22 06:36:45;;;;;;;;;;;23.50;99.90;;;;;;4989796;28;20413;-66
2022/10/22 06:39:13;;;;;;;;;;;23.50;99.90;;;;;;4989285;28;20354;-66
2022/10/22 06:41:40;;;;;;;;;;;23.50;99.90;;;;;;4984848;28;19949;-66
2022/10/22 06:44:06;;;;;;;;;;;23.60;99.90;;;;;;4981016;28;19922;-66
2022/10/22 06:46:33;;;;;;;;;;;23.50;99.90;;;;;;4989316;28;19914;-66
2022/10/22 06:49:01;;;;;;;;;;;23.30;99.90;;;;;;4989745;28;19917;-67
2022/10/22 06:51:28;;;;;;;;;;;23.30;99.90;;;;;;4986374;28;19917;-66
2022/10/22 06:53:55;;;;;;;;;;;23.10;99.90;;;;;;4964054;28;19910;-67
2022/10/22 06:56:23;;;;;;;;;;;23.00;99.90;;;;;;4993084;28;19910;-67
2022/10/22 06:58:50;;;;;;;;;;;22.90;99.90;;;;;;4993048;28;19917;-67
2022/10/22 07:01:18;;;;;;;;;;;22.80;99.90;;;;;;4992147;28;19914;-67
2022/10/22 07:03:44;;;;;;;;;;;22.80;99.90;;;;;;4992437;28;19910;-66
2022/10/22 07:06:12;;;;;;;;;;;22.70;99.90;;;;;;4991903;28;20382;-66
2022/10/22 07:08:40;;;;;;;;;;;22.60;99.90;;;;;;4991552;28;19920;-66
2022/10/22 07:11:14;;;;;;;;;;;22.50;99.90;;;;;;4991132;28;19910;-67
2022/10/22 07:13:41;;;;;;;;;;;22.40;99.90;;;;;;4988921;28;19917;-67
2022/10/22 07:16:08;;;;;;;;;;;22.30;99.90;;;;;;4991470;28;19935;-67
2022/10/22 07:18:35;;;;;;;;;;;22.20;99.90;;;;;;5025296;28;20264;-66
2022/10/22 07:21:02;;;;;;;;;;;22.20;99.90;;;;;;4991085;28;19914;-66
2022/10/22 07:23:29;;;;;;;;;;;22.20;99.90;;;;;;4979558;28;19968;-68
2022/10/22 07:25:55;;;;;;;;;;;22.20;99.90;;;;;;4991707;28;20424;-67
2022/10/22 07:28:22;;;;;;;;;;;22.00;99.90;;;;;;4991523;28;19914;-66
2022/10/22 07:30:49;;;;;;;;;;;22.00;99.90;;;;;;4991782;28;20334;-66
2022/10/22 07:33:16;;;;;;;;;;;21.90;99.90;;;;;;4989068;28;20429;-66
2022/10/22 07:35:42;;;;;;;;;;;21.90;99.90;;;;;;4989036;28;19914;-66
2022/10/22 07:38:09;;;;;;;;;;;21.80;99.90;;;;;;4991114;28;19955;-66
2022/10/22 07:40:36;;;;;;;;;;;21.80;99.90;;;;;;4982618;28;20324;-66
2022/10/22 07:43:03;;;;;;;;;;;21.60;99.90;;;;;;4976719;28;20381;-68
2022/10/22 07:45:29;;;;;;;;;;;21.50;99.90;;;;;;5002423;28;19954;-66
2022/10/22 07:47:56;;;;;;;;;;;21.50;99.90;;;;;;4991356;28;19921;-66
2022/10/22 07:50:23;;;;;;;;;;;21.40;99.90;;;;;;4991429;28;19917;-66
2022/10/22 07:52:49;;;;;;;;;;;21.40;99.90;;;;;;4988921;28;19921;-66
2022/10/22 07:55:16;;;;;;;;;;;21.50;99.90;;;;;;4990194;28;19914;-67
2022/10/22 07:57:42;;;;;;;;;;;21.40;99.90;;;;;;4991182;28;19914;-66
2022/10/22 08:00:09;;;;;;;;;;;21.30;99.90;;;;;;4992040;28;19918;-66
2022/10/22 08:02:36;;;;;;;;;;;21.30;99.90;;;;;;4979586;28;19910;-66
2022/10/22 08:05:03;;;;;;;;;;;21.20;99.90;;;;;;4989019;28;19918;-65
2022/10/22 08:07:29;;;;;;;;;;;21.20;99.90;;;;;;4991895;28;19914;-65
2022/10/22 08:09:56;;;;;;;;;;;21.10;99.90;;;;;;4991785;28;19913;-65
2022/10/22 08:12:23;;;;;;;;;;;21.00;99.90;;;;;;4981250;28;19910;-64
2022/10/22 08:14:49;;;;;;;;;;;21.00;99.90;;;;;;4971850;28;19914;-64
2022/10/22 08:17:16;;;;;;;;;;;21.00;99.90;;;;;;4975885;28;19925;-64
2022/10/22 08:19:42;;;;;;;;;;;21.00;99.90;;;;;;4989769;28;20415;-64
2022/10/22 08:22:11;;;;;;;;;;;20.90;99.90;;;;;;4953094;28;20257;-67
2022/10/22 08:24:38;;;;;;;;;;;20.90;99.90;;;;;;4982623;28;20378;-64
2022/10/22 08:27:04;;;;;;;;;;;20.90;99.90;;;;;;4988512;28;19909;-64
2022/10/22 08:29:31;;;;;;;;;;;20.90;99.90;;;;;;4971886;28;20004;-63
2022/10/22 08:31:57;;;;;;;;;;;20.80;99.90;;;;;;5001775;28;19924;-64
2022/10/22 08:34:24;;;;;;;;;;;20.80;99.90;;;;;;5092044;28;19908;-64
2022/10/22 08:36:51;;;;;;;;;;;20.70;99.90;;;;;;5094481;28;19908;-66
2022/10/22 08:39:17;;;;;;;;;;;20.70;99.90;;;;;;5094177;28;19908;-65
2022/10/22 08:41:44;;;;;;;;;;;20.70;99.90;;;;;;5094573;28;19916;-67
2022/10/22 08:44:14;;;;;;;;;;;20.70;99.90;;;;;;5092655;28;19928;-65
2022/10/22 08:46:43;;;;;;;;;;;20.70;99.90;;;;;;5092969;28;19912;-67
2022/10/22 08:49:20;;;;;;;;;;;20.70;99.90;;;;;;5092677;28;19961;-67
2022/10/22 08:51:46;;;;;;;;;;;20.70;99.90;;;;;;5092487;28;19909;-66
2022/10/22 08:54:13;;;;;;;;;;;20.70;99.90;;;;;;5092612;28;19931;-67
2022/10/22 08:56:44;;;;;;;;;;;20.60;99.90;;;;;;5093025;28;19930;-66
2022/10/22 08:59:22;;;;;;;;;;;20.60;99.90;;;;;;5092531;28;19916;-66
2022/10/22 09:01:51;;;;;;;;;;;20.50;99.90;;;;;;5094225;28;19919;-66
2022/10/22 09:04:18;;;;;;;;;;;20.50;99.90;;;;;;5075811;28;19912;-66
2022/10/22 09:06:46;;;;;;;;;;;20.40;99.90;;;;;;5094160;28;19908;-67
2022/10/22 09:09:15;;;;;;;;;;;20.40;99.90;;;;;;5094233;28;19915;-64
2022/10/22 09:11:43;;;;;;;;;;;20.40;99.90;;;;;;5094180;28;19908;-65
2022/10/22 09:14:20;;;;;;;;;;;20.30;99.90;;;;;;5093976;28;19904;-64
2022/10/22 09:17:05;;;;;;;;;;;20.30;99.90;;;;;;5094196;28;20002;-64
2022/10/22 09:19:35;;;;;;;;;;;20.30;99.90;;;;;;5093916;28;20030;-65
2022/10/22 09:22:07;;;;;;;;;;;20.30;99.90;;;;;;5093629;28;19915;-67
2022/10/22 09:24:38;;;;;;;;;;;20.30;99.90;;;;;;5093699;28;19912;-65
2022/10/22 09:27:15;;;;;;;;;;;20.20;99.90;;;;;;5093992;28;20375;-67
2022/10/22 09:29:42;;;;;;;;;;;20.20;99.90;;;;;;5094136;28;19909;-65
2022/10/22 09:32:08;;;;;;;;;;;20.20;99.90;;;;;;5093846;28;19908;-65
2022/10/22 09:34:35;;;;;;;;;;;20.10;99.90;;;;;;5093665;28;19908;-65
2022/10/22 09:37:03;;;;;;;;;;;20.10;99.90;;;;;;5093368;28;19915;-65
2022/10/22 09:39:34;;;;;;;;;;;20.10;99.90;;;;;;5093670;28;19908;-65
2022/10/22 09:42:01;;;;;;;;;;;20.10;99.90;;;;;;5093602;28;20387;-64
2022/10/22 09:44:28;;;;;;;;;;;20.10;99.90;;;;;;5093287;28;20389;-65
2022/10/22 09:46:55;;;;;;;;;;;20.10;99.90;;;;;;5028696;28;19914;-66
2022/10/22 09:49:23;;;;;;;;;;;20.20;99.90;;;;;;4986436;28;20005;-65
2022/10/22 09:51:52;;;;;;;;;;;20.20;99.90;;;;;;4985505;28;19975;-64
2022/10/22 09:54:20;;;;;;;;;;;20.10;99.90;;;;;;4990713;28;19910;-63
2022/10/22 09:56:57;;;;;;;;;;;20.10;99.90;;;;;;4979504;28;19909;-64
2022/10/22 09:59:26;;;;;;;;;;;20.10;99.90;;;;;;4970811;28;20375;-63
2022/10/22 10:01:58;;;;;;;;;;;20.20;99.90;;;;;;4970724;28;19914;-64
2022/10/22 10:04:24;;;;;;;;;;;20.20;99.90;;;;;;4989895;28;19914;-64
2022/10/22 10:06:54;;;;;;;;;;;20.20;99.90;;;;;;4978716;28;19910;-65
2022/10/22 10:09:22;;;;;;;;;;;20.20;99.90;;;;;;4971116;28;19914;-64
2022/10/22 10:11:58;;;;;;;;;;;20.20;99.90;;;;;;4970355;28;20328;-65
2022/10/22 10:14:32;;;;;;;;;;;20.20;99.90;;;;;;4979149;28;19909;-66
2022/10/22 10:17:17;;;;;;;;;;;20.20;99.90;;;;;;4990264;28;20374;-64
2022/10/22 10:19:53;;;;;;;;;;;20.20;99.90;;;;;;4953439;28;19911;-64
2022/10/22 10:22:37;;;;;;;;;;;20.20;99.90;;;;;;4970556;28;20412;-65
2022/10/22 10:25:16;;;;;;;;;;;20.30;99.90;;;;;;4970298;28;19918;-66
2022/10/22 10:27:45;;;;;;;;;;;20.30;99.90;;;;;;4969559;28;19917;-64
2022/10/22 10:30:13;;;;;;;;;;;20.20;99.90;;;;;;4970887;28;19910;-65
2022/10/22 10:32:57;;;;;;;;;;;20.30;99.90;;;;;;4970923;28;20286;-65
2022/10/22 10:35:29;;;;;;;;;;;20.20;99.90;;;;;;4953125;28;20332;-66
2022/10/22 10:38:07;;;;;;;;;;;20.20;99.90;;;;;;4970506;28;19925;-64
2022/10/22 10:41:12;;;;;;;;;;;20.20;99.90;;;;;;4970579;28;19956;-65
2022/10/22 10:43:38;;;;;;;;;;;20.10;99.90;;;;;;4929623;29;19911;-66
2022/10/22 10:46:14;;;;;;;;;;;20.10;99.90;;;;;;4937002;29;19917;-65
2022/10/22 10:48:43;;;;;;;;;;;20.20;99.90;;;;;;4950188;28;20009;-65
2022/10/22 10:51:22;;;;;;;;;;;20.20;99.90;;;;;;4951047;28;19910;-65
2022/10/22 10:54:07;;;;;;;;;;;20.20;99.90;;;;;;4951354;28;20406;-64
2022/10/22 10:56:40;;;;;;;;;;;20.10;99.90;;;;;;4950826;28;19910;-66
2022/10/22 10:59:28;;;;;;;;;;;20.20;99.90;;;;;;4951061;28;20290;-64
2022/10/22 11:02:13;;;;;;;;;;;20.10;99.90;;;;;;4950821;28;19940;-64
2022/10/22 11:04:49;;;;;;;;;;;20.20;99.90;;;;;;4950655;28;19918;-63
2022/10/22 11:07:38;;;;;;;;;;;20.20;99.90;;;;;;4950392;28;19911;-63
2022/10/22 11:10:28;;;;;;;;;;;20.10;99.90;;;;;;4960517;28;19911;-65
2022/10/22 11:12:58;;;;;;;;;;;20.20;99.90;;;;;;4960688;28;19910;-64
2022/10/22 11:15:32;;;;;;;;;;;20.20;99.90;;;;;;4950472;28;19960;-67
2022/10/22 11:18:10;;;;;;;;;;;20.20;99.90;;;;;;4950811;28;20379;-66
2022/10/22 11:20:43;;;;;;;;;;;20.20;99.90;;;;;;4950705;29;19917;-66
2022/10/22 11:23:30;;;;;;;;;;;20.10;99.90;;;;;;4951088;28;20353;-65
2022/10/22 11:25:58;;;;;;;;;;;20.10;99.90;;;;;;4963100;28;19919;-67
2022/10/22 11:28:26;;;;;;;;;;;20.10;99.90;;;;;;4950761;29;19910;-66
2022/10/22 11:30:57;;;;;;;;;;;20.10;99.90;;;;;;4950916;28;19910;-65
2022/10/22 11:33:26;;;;;;;;;;;20.10;99.90;;;;;;4950885;28;19921;-65
2022/10/22 11:35:52;;;;;;;;;;;20.10;99.90;;;;;;4951943;28;20273;-67
2022/10/22 11:38:24;;;;;;;;;;;20.10;99.90;;;;;;4950744;29;19911;-67
2022/10/22 11:40:51;;;;;;;;;;;20.10;99.90;;;;;;4953894;28;19918;-66
2022/10/22 11:43:28;;;;;;;;;;;20.20;99.90;;;;;;4954024;29;19933;-66
2022/10/22 11:46:01;;;;;;;;;;;20.20;99.90;;;;;;4953391;28;19922;-67
2022/10/22 11:48:33;;;;;;;;;;;20.10;99.90;;;;;;4954118;28;19911;-64
2022/10/22 11:51:01;;;;;;;;;;;20.10;99.90;;;;;;4966820;28;20282;-67
2022/10/22 11:53:32;;;;;;;;;;;20.10;99.90;;;;;;4972806;28;19953;-67
2022/10/22 11:56:11;;;;;;;;;;;20.10;99.90;;;;;;4966061;28;19956;-66
2022/10/22 11:58:40;;;;;;;;;;;20.10;99.90;;;;;;4953606;28;19956;-66
2022/10/22 12:01:07;;;;;;;;;;;20.10;99.90;;;;;;4952197;29;19910;-66
2022/10/22 12:03:34;;;;;;;;;;;20.10;99.90;;;;;;4952946;29;20381;-66
2022/10/22 12:06:03;;;;;;;;;;;20.10;99.90;;;;;;4952960;28;19925;-66
2022/10/22 12:08:30;;;;;;;;;;;20.00;99.90;;;;;;4954057;28;19914;-66
2022/10/22 12:10:58;;;;;;;;;;;20.10;99.90;;;;;;4953915;28;20382;-66
2022/10/22 12:13:27;;;;;;;;;;;20.10;99.90;;;;;;4953813;28;20091;-66
2022/10/22 12:15:55;;;;;;;;;;;20.00;99.90;;;;;;4966632;28;20330;-66
2022/10/22 12:18:25;;;;;;;;;;;20.00;99.90;;;;;;4971892;28;20045;-66
2022/10/22 12:20:53;;;;;;;;;;;20.00;99.90;;;;;;4971826;28;20005;-66
2022/10/22 12:23:20;;;;;;;;;;;20.00;99.90;;;;;;4972817;28;19914;-65
2022/10/22 12:25:47;;;;;;;;;;;20.00;99.90;;;;;;4971319;28;19964;-66
2022/10/22 12:28:15;;;;;;;;;;;20.00;99.90;;;;;;4968122;28;20324;-66
2022/10/22 12:30:41;;;;;;;;;;;20.00;99.90;;;;;;4972485;28;20059;-66
2022/10/22 12:33:17;;;;;;;;;;;20.00;99.90;;;;;;4972779;28;19918;-66
2022/10/22 12:35:45;;;;;;;;;;;20.00;99.90;;;;;;4972719;28;19916;-66
2022/10/22 12:38:16;;;;;;;;;;;20.00;99.90;;;;;;4972747;28;19917;-66
2022/10/22 12:40:43;;;;;;;;;;;20.00;99.90;;;;;;4972607;28;19914;-66
2022/10/22 12:43:14;;;;;;;;;;;20.00;99.90;;;;;;4972646;28;19914;-66
2022/10/22 12:45:42;;;;;;;;;;;20.00;99.90;;;;;;4990054;28;19922;-65
2022/10/22 12:48:17;;;;;;;;;;;20.00;99.90;;;;;;4992152;28;19948;-65
2022/10/22 12:50:48;;;;;;;;;;;20.00;99.90;;;;;;4991285;28;20000;-66
2022/10/22 12:53:27;;;;;;;;;;;20.00;99.90;;;;;;4992035;28;19910;-66
2022/10/22 12:55:55;;;;;;;;;;;20.10;99.90;;;;;;4991997;28;20390;-67
2022/10/22 12:58:31;;;;;;;;;;;20.00;99.90;;;;;;4992295;28;20366;-65
2022/10/22 13:01:00;;;;;;;;;;;20.00;99.90;;;;;;4991899;28;20427;-66
2022/10/22 13:03:29;;;;;;;;;;;20.00;99.90;;;;;;4991858;28;19916;-66
2022/10/22 13:05:56;;;;;;;;;;;20.00;99.90;;;;;;4991755;28;19979;-65
2022/10/22 13:08:26;;;;;;;;;;;20.00;99.90;;;;;;4992136;28;19956;-66
2022/10/22 13:10:53;;;;;;;;;;;20.10;99.90;;;;;;4991887;28;20442;-66
2022/10/22 13:13:34;;;;;;;;;;;20.10;99.90;;;;;;4991977;28;19910;-66
2022/10/22 13:16:13;;;;;;;;;;;20.10;99.90;;;;;;4991521;28;19910;-66
2022/10/22 13:18:40;;;;;;;;;;;20.10;99.90;;;;;;4991528;28;19916;-66
2022/10/22 13:21:20;;;;;;;;;;;20.10;99.90;;;;;;4991350;28;20601;-65
2022/10/22 13:23:51;;;;;;;;;;;20.10;99.90;;;;;;4991152;28;19917;-67
2022/10/22 13:26:18;;;;;;;;;;;20.10;99.90;;;;;;4991601;28;20290;-66
2022/10/22 13:28:52;;;;;;;;;;;20.10;99.90;;;;;;4991634;28;19909;-65
2022/10/22 13:31:24;;;;;;;;;;;20.20;99.90;;;;;;4991489;28;19914;-66
2022/10/22 13:33:58;;;;;;;;;;;20.10;99.90;;;;;;4991536;28;19914;-66
2022/10/22 13:36:25;;;;;;;;;;;20.10;99.90;;;;;;4991699;28;19914;-66
2022/10/22 13:38:51;;;;;;;;;;;20.10;99.90;;;;;;4991494;28;19909;-66
2022/10/22 13:41:19;;;;;;;;;;;20.20;99.90;;;;;;4991153;28;19910;-66
2022/10/22 13:43:46;;;;;;;;;;;20.20;99.90;;;;;;4990901;28;19994;-66
2022/10/22 13:46:12;;;;;;;;;;;20.20;99.90;;;;;;4991152;28;19921;-66
2022/10/22 13:48:39;;;;;;;;;;;20.10;99.90;;;;;;4991134;28;19910;-65
2022/10/22 13:51:16;;;;;;;;;;;20.10;99.90;;;;;;4989860;28;19909;-66
2022/10/22 13:53:44;;;;;;;;;;;20.10;99.90;;;;;;4990940;28;19917;-67
2022/10/22 13:56:12;;;;;;;;;;;20.10;99.90;;;;;;4991047;28;19910;-66
2022/10/22 13:58:39;;;;;;;;;;;20.10;99.90;;;;;;4991373;28;19910;-66
2022/10/22 14:01:12;;;;;;;;;;;20.10;99.90;;;;;;4991192;28;20453;-66
2022/10/22 14:03:39;;;;;;;;;;;20.10;99.90;;;;;;4962259;28;20345;-66
2022/10/22 14:06:11;;;;;;;;;;;20.10;99.90;;;;;;4991183;28;19924;-66
2022/10/22 14:08:38;;;;;;;;;;;20.00;99.90;;;;;;4991078;28;20427;-66
2022/10/22 14:11:04;;;;;;;;;;;20.00;99.90;;;;;;4991072;28;19909;-66
2022/10/22 14:13:31;;;;;;;;;;;19.90;99.90;;;;;;4990971;28;19910;-66
2022/10/22 14:15:57;;;;;;;;;;;19.90;99.90;;;;;;4990805;28;19989;-66
2022/10/22 14:18:27;;;;;;;;;;;20.00;99.90;;;;;;4991052;28;19910;-65
2022/10/22 14:20:58;;;;;;;;;;;19.90;99.90;;;;;;4990894;28;19917;-66
2022/10/22 14:23:27;;;;;;;;;;;19.90;99.90;;;;;;4991140;28;19932;-66
2022/10/22 14:25:54;;;;;;;;;;;19.90;99.90;;;;;;4990337;28;20076;-66
2022/10/22 14:28:21;;;;;;;;;;;19.90;99.90;;;;;;4990423;28;19910;-66
2022/10/22 14:30:47;;;;;;;;;;;19.90;99.90;;;;;;4990722;28;19910;-66